createdAt,value
2018-04-27T00:00:04.417Z,90.30
2018-04-27T00:02:31.901Z,90.60
2018-04-27T00:04:59.447Z,91.10
2018-04-27T00:07:26.907Z,91.40
2018-04-27T00:09:54.392Z,91.70
2018-04-27T00:12:22.695Z,91.80
2018-04-27T00:14:50.179Z,91.80
2018-04-27T00:17:17.644Z,92.00
2018-04-27T00:19:45.137Z,91.80
2018-04-27T00:22:13.375Z,91.90
2018-04-27T00:24:40.862Z,91.90
2018-04-27T00:27:08.343Z,92.40
2018-04-27T00:29:35.827Z,92.40
2018-04-27T00:32:03.287Z,92.50
2018-04-27T00:34:30.786Z,92.40
2018-04-27T00:36:58.261Z,92.40
2018-04-27T00:39:26.549Z,92.70
2018-04-27T00:41:54.121Z,92.60
2018-04-27T00:44:21.644Z,92.60
2018-04-27T00:46:49.871Z,91.80
2018-04-27T00:49:17.359Z,92.00
2018-04-27T00:51:44.824Z,91.80
2018-04-27T00:54:12.309Z,91.60
2018-04-27T00:56:40.536Z,91.60
2018-04-27T00:59:08.007Z,91.50
2018-04-27T01:01:35.461Z,91.60
2018-04-27T01:04:02.940Z,91.60
2018-04-27T01:06:31.169Z,91.70
2018-04-27T01:08:58.648Z,91.60
2018-04-27T01:11:26.123Z,91.60
2018-04-27T01:13:53.592Z,91.70
2018-04-27T01:16:21.817Z,91.40
2018-04-27T01:18:49.296Z,91.30
2018-04-27T01:21:16.845Z,91.50
2018-04-27T01:23:44.318Z,91.40
2018-04-27T01:26:11.903Z,91.40
2018-04-27T01:28:40.145Z,91.50
2018-04-27T01:31:07.639Z,91.50
2018-04-27T01:33:35.876Z,91.60
2018-04-27T01:36:03.351Z,91.60
2018-04-27T01:38:30.828Z,91.60
2018-04-27T01:40:59.053Z,91.60
2018-04-27T01:43:26.523Z,91.60
2018-04-27T01:45:53.980Z,91.50
2018-04-27T01:48:21.441Z,91.90
2018-04-27T01:50:48.918Z,91.90
2018-04-27T01:53:17.164Z,92.10
2018-04-27T01:55:44.643Z,92.10
2018-04-27T01:58:12.120Z,92.00
2018-04-27T02:00:39.606Z,92.20
2018-04-27T02:03:07.068Z,92.20
2018-04-27T02:05:34.553Z,92.30
2018-04-27T02:08:02.007Z,92.60
2018-04-27T02:10:29.485Z,92.80
2018-04-27T02:12:57.027Z,93.20
2018-04-27T02:15:24.500Z,93.30
2018-04-27T02:17:51.956Z,93.40
2018-04-27T02:20:19.428Z,93.60
2018-04-27T02:22:46.884Z,93.60
2018-04-27T02:25:15.153Z,93.70
2018-04-27T02:27:43.387Z,93.50
2018-04-27T02:30:10.867Z,93.70
2018-04-27T02:32:38.335Z,93.60
2018-04-27T02:35:05.808Z,93.70
2018-04-27T02:37:33.279Z,93.70
2018-04-27T02:40:00.803Z,93.70
2018-04-27T02:42:29.085Z,94.10
2018-04-27T02:44:56.573Z,94.00
2018-04-27T02:47:24.036Z,94.30
2018-04-27T02:49:51.558Z,94.40
2018-04-27T02:52:19.015Z,94.40
2018-04-27T02:54:46.671Z,94.20
2018-04-27T02:57:14.134Z,94.80
2018-04-27T02:59:41.628Z,94.40
2018-04-27T03:02:09.107Z,95.00
2018-04-27T03:04:36.591Z,95.40
2018-04-27T03:07:04.060Z,95.50
2018-04-27T03:09:32.336Z,95.80
2018-04-27T03:12:00.602Z,96.10
2018-04-27T03:14:28.178Z,95.80
2018-04-27T03:16:55.630Z,96.00
2018-04-27T03:19:23.297Z,96.10
2018-04-27T03:21:50.759Z,96.10
2018-04-27T03:24:19.035Z,96.00
2018-04-27T03:26:47.268Z,95.80
2018-04-27T03:29:14.739Z,95.80
2018-04-27T03:31:42.221Z,95.90
2018-04-27T03:34:09.693Z,95.80
2018-04-27T03:36:37.935Z,95.60
2018-04-27T03:39:05.421Z,95.60
2018-04-27T03:41:33.674Z,95.90
2018-04-27T03:44:01.253Z,95.90
2018-04-27T03:46:29.475Z,95.90
2018-04-27T03:48:56.958Z,95.80
2018-04-27T03:51:25.924Z,96.00
2018-04-27T03:53:53.420Z,95.90
2018-04-27T03:56:20.889Z,95.90
2018-04-27T03:58:49.139Z,96.10
2018-04-27T04:01:28.568Z,96.10
2018-04-27T04:04:07.979Z,96.00
2018-04-27T04:06:35.495Z,96.20
2018-04-27T04:09:03.731Z,96.40
2018-04-27T04:11:31.208Z,96.30
2018-04-27T04:13:58.668Z,96.50
2018-04-27T04:16:26.152Z,96.60
2018-04-27T04:18:54.432Z,96.70
2018-04-27T04:21:22.668Z,96.70
2018-04-27T04:23:50.133Z,96.70
2018-04-27T04:26:17.616Z,96.70
2018-04-27T04:28:45.856Z,96.90
2018-04-27T04:31:13.348Z,96.90
2018-04-27T04:33:41.579Z,96.90
2018-04-27T04:36:09.085Z,96.90
2018-04-27T04:38:37.325Z,96.70
2018-04-27T04:41:04.791Z,96.70
2018-04-27T04:43:32.266Z,96.70
2018-04-27T04:46:00.529Z,96.80
2018-04-27T04:48:28.041Z,96.70
2018-04-27T04:50:55.514Z,96.80
2018-04-27T04:53:22.993Z,96.80
2018-04-27T04:55:50.483Z,96.60
2018-04-27T04:58:18.731Z,96.70
2018-04-27T05:00:46.993Z,96.50
2018-04-27T05:03:14.460Z,96.50
2018-04-27T05:05:41.936Z,96.40
2018-04-27T05:08:10.195Z,96.50
2018-04-27T05:10:37.757Z,96.40
2018-04-27T05:13:05.484Z,96.50
2018-04-27T05:15:32.980Z,96.50
2018-04-27T05:18:11.339Z,96.50
2018-04-27T05:20:38.821Z,96.60
2018-04-27T05:23:06.672Z,96.60
2018-04-27T05:25:34.174Z,96.70
2018-04-27T05:28:01.636Z,96.50
2018-04-27T05:30:30.255Z,96.40
2018-04-27T05:33:04.518Z,96.20
2018-04-27T05:35:32.008Z,96.20
2018-04-27T05:38:00.276Z,95.50
2018-04-27T05:40:28.516Z,95.20
2018-04-27T05:42:55.999Z,95.10
2018-04-27T05:45:24.274Z,95.20
2018-04-27T05:47:51.747Z,95.00
2018-04-27T05:50:20.002Z,94.50
2018-04-27T05:52:47.476Z,94.50
2018-04-27T05:55:15.760Z,94.30
2018-04-27T05:57:44.005Z,94.10
2018-04-27T06:00:11.495Z,94.10
2018-04-27T06:02:39.729Z,94.00
2018-04-27T06:05:07.241Z,93.90
2018-04-27T06:07:34.719Z,94.20
2018-04-27T06:10:02.441Z,93.90
2018-04-27T06:12:29.878Z,93.80
2018-04-27T06:14:57.717Z,94.00
2018-04-27T06:17:26.337Z,93.90
2018-04-27T06:19:53.912Z,93.90
2018-04-27T06:22:22.160Z,93.90
2018-04-27T06:24:49.754Z,93.90
2018-04-27T06:27:17.280Z,93.60
2018-04-27T06:29:44.765Z,93.70
2018-04-27T06:32:13.019Z,93.70
2018-04-27T06:34:40.628Z,93.70
2018-04-27T06:37:08.105Z,93.80
2018-04-27T06:39:35.564Z,93.60
2018-04-27T06:42:03.045Z,93.80
2018-04-27T06:44:32.037Z,93.10
2018-04-27T06:46:59.558Z,93.20
2018-04-27T06:49:27.024Z,93.10
2018-04-27T06:51:54.548Z,92.90
2018-04-27T06:54:22.055Z,92.90
2018-04-27T06:56:49.642Z,92.70
2018-04-27T06:59:17.962Z,92.60
2018-04-27T07:01:45.401Z,92.60
2018-04-27T07:04:12.883Z,92.60
2018-04-27T07:06:40.386Z,92.20
2018-04-27T07:09:08.647Z,92.40
2018-04-27T07:11:36.323Z,92.00
2018-04-27T07:14:03.802Z,92.00
2018-04-27T07:16:32.063Z,91.70
2018-04-27T07:19:00.311Z,91.70
2018-04-27T07:21:27.853Z,91.60
2018-04-27T07:23:55.339Z,91.90
2018-04-27T07:26:23.643Z,91.50
2018-04-27T07:28:52.031Z,91.50
2018-04-27T07:31:19.543Z,91.50
2018-04-27T07:33:47.025Z,91.40
2018-04-27T07:36:15.328Z,91.10
2018-04-27T07:38:42.804Z,91.00
2018-04-27T07:41:10.316Z,90.90
2018-04-27T07:43:37.808Z,90.70
2018-04-27T07:46:06.187Z,90.60
2018-04-27T07:48:33.712Z,90.50
2018-04-27T07:51:01.982Z,90.40
2018-04-27T07:53:30.242Z,90.20
2018-04-27T07:55:57.773Z,90.20
2018-04-27T07:58:25.248Z,90.10
2018-04-27T08:00:52.735Z,90.00
2018-04-27T08:03:20.991Z,90.00
2018-04-27T08:05:49.974Z,89.80
2018-04-27T08:08:17.439Z,89.80
2018-04-27T08:10:46.445Z,88.70
2018-04-27T08:13:13.909Z,88.70
2018-04-27T08:15:42.160Z,87.80
2018-04-27T08:18:09.631Z,87.70
2018-04-27T08:20:37.758Z,87.20
2018-04-27T08:23:05.234Z,86.00
2018-04-27T08:25:34.221Z,84.90
2018-04-27T08:28:01.701Z,84.80
2018-04-27T08:30:29.193Z,84.80
2018-04-27T08:32:57.427Z,84.30
2018-04-27T08:35:24.931Z,84.20
2018-04-27T08:37:52.410Z,82.20
2018-04-27T08:40:19.935Z,82.30
2018-04-27T08:42:48.189Z,82.80
2018-04-27T08:45:15.928Z,82.60
2018-04-27T08:47:43.417Z,82.70
2018-04-27T08:50:11.204Z,81.80
2018-04-27T08:52:38.700Z,81.50
2018-04-27T08:55:06.187Z,81.50
2018-04-27T08:57:33.674Z,81.50
2018-04-27T09:00:01.901Z,81.00
2018-04-27T09:02:29.444Z,80.30
2018-04-27T09:04:56.924Z,80.30
2018-04-27T09:07:24.453Z,79.40
2018-04-27T09:09:52.246Z,79.10
2018-04-27T09:12:19.803Z,79.30
2018-04-27T09:14:47.264Z,79.50
2018-04-27T09:17:14.743Z,78.30
2018-04-27T09:19:42.222Z,78.10
2018-04-27T09:22:10.510Z,77.70
2018-04-27T09:24:38.006Z,77.50
2018-04-27T09:27:05.487Z,78.10
2018-04-27T09:29:33.000Z,78.90
2018-04-27T09:32:00.490Z,77.70
2018-04-27T09:34:28.094Z,76.90
2018-04-27T09:36:55.615Z,76.50
2018-04-27T09:39:23.132Z,75.20
2018-04-27T09:41:50.608Z,75.00
2018-04-27T09:44:18.107Z,74.40
2018-04-27T09:46:46.344Z,71.30
2018-04-27T09:49:13.839Z,71.30
2018-04-27T09:51:42.068Z,70.50
2018-04-27T09:54:09.593Z,70.30
2018-04-27T09:56:37.076Z,70.10
2018-04-27T09:59:04.576Z,71.20
2018-04-27T10:01:32.052Z,68.30
2018-04-27T10:04:00.321Z,65.60
2018-04-27T10:06:28.552Z,65.30
2018-04-27T10:08:56.043Z,65.20
2018-04-27T10:11:24.279Z,66.60
2018-04-27T10:13:51.753Z,65.60
2018-04-27T10:16:19.249Z,64.20
2018-04-27T10:18:47.476Z,65.50
2018-04-27T10:21:14.963Z,65.40
2018-04-27T10:23:42.434Z,64.60
2018-04-27T10:26:10.719Z,65.00
2018-04-27T10:28:38.994Z,65.10
2018-04-27T10:31:07.280Z,64.70
2018-04-27T10:33:34.852Z,64.50
2018-04-27T10:36:02.272Z,65.10
2018-04-27T10:38:30.561Z,64.50
2018-04-27T10:40:58.839Z,64.50
2018-04-27T10:43:27.105Z,64.80
2018-04-27T10:45:55.355Z,63.50
2018-04-27T10:48:22.827Z,63.40
2018-04-27T10:50:50.316Z,63.50
2018-04-27T10:53:17.843Z,63.80
2018-04-27T10:55:45.351Z,63.30
2018-04-27T10:58:13.021Z,63.60
2018-04-27T11:00:40.511Z,63.80
2018-04-27T11:03:08.745Z,65.30
2018-04-27T11:05:36.297Z,65.30
2018-04-27T11:08:03.857Z,65.10
2018-04-27T11:10:31.384Z,64.40
2018-04-27T11:12:59.692Z,62.60
2018-04-27T11:15:27.155Z,62.60
2018-04-27T11:17:54.644Z,62.60
2018-04-27T11:20:22.268Z,62.90
2018-04-27T11:22:50.006Z,63.30
2018-04-27T11:25:17.519Z,63.00
2018-04-27T11:27:45.041Z,63.00
2018-04-27T11:30:12.502Z,65.50
2018-04-27T11:32:40.015Z,64.30
2018-04-27T11:35:07.539Z,63.20
2018-04-27T11:37:34.994Z,62.90
2018-04-27T11:40:02.459Z,61.60
2018-04-27T11:42:29.954Z,60.20
2018-04-27T11:44:57.453Z,60.00
2018-04-27T11:47:24.944Z,59.90
2018-04-27T11:49:52.431Z,59.60
2018-04-27T11:52:20.695Z,60.50
2018-04-27T11:54:48.934Z,60.00
2018-04-27T11:57:16.411Z,59.90
2018-04-27T11:59:43.895Z,59.80
2018-04-27T12:02:12.220Z,59.50
2018-04-27T12:04:39.729Z,59.50
2018-04-27T12:07:08.477Z,58.70
2018-04-27T12:09:35.983Z,58.00
2018-04-27T12:12:04.236Z,56.70
2018-04-27T12:14:31.741Z,56.60
2018-04-27T12:16:59.222Z,56.80
2018-04-27T12:19:26.708Z,56.30
2018-04-27T12:21:54.999Z,55.90
2018-04-27T12:24:23.255Z,55.90
2018-04-27T12:26:50.825Z,55.40
2018-04-27T12:29:18.303Z,54.90
2018-04-27T12:31:46.701Z,54.70
2018-04-27T12:34:14.140Z,54.70
2018-04-27T12:36:42.395Z,54.70
2018-04-27T12:39:09.887Z,54.70
2018-04-27T12:41:37.385Z,54.80
2018-04-27T12:44:04.980Z,55.90
2018-04-27T12:46:33.231Z,55.20
2018-04-27T12:49:00.714Z,55.10
2018-04-27T12:51:28.967Z,53.50
2018-04-27T12:53:56.433Z,53.50
2018-04-27T12:56:24.036Z,52.90
2018-04-27T12:58:51.502Z,54.20
2018-04-27T13:01:18.996Z,52.70
2018-04-27T13:03:47.297Z,49.00
2018-04-27T13:06:15.552Z,49.00
2018-04-27T13:08:43.023Z,48.90
2018-04-27T13:11:11.285Z,47.70
2018-04-27T13:13:38.859Z,46.90
2018-04-27T13:16:07.131Z,46.40
2018-04-27T13:18:34.619Z,46.30
2018-04-27T13:21:02.193Z,45.90
2018-04-27T13:23:29.657Z,45.40
2018-04-27T13:25:57.307Z,45.10
2018-04-27T13:28:24.817Z,43.40
2018-04-27T13:30:53.084Z,42.60
2018-04-27T13:33:20.597Z,42.30
2018-04-27T13:35:48.065Z,41.80
2018-04-27T13:38:15.586Z,41.60
2018-04-27T13:40:43.820Z,40.50
2018-04-27T13:43:11.315Z,40.40
2018-04-27T13:45:40.355Z,40.40
2018-04-27T13:48:07.847Z,39.70
2018-04-27T13:50:35.327Z,39.80
2018-04-27T13:53:03.612Z,38.40
2018-04-27T13:55:31.149Z,38.40
2018-04-27T13:58:00.164Z,37.00
2018-04-27T14:00:28.399Z,37.10
2018-04-27T14:02:55.966Z,37.00
2018-04-27T14:05:23.396Z,37.30
2018-04-27T14:07:50.909Z,37.20
2018-04-27T14:10:19.136Z,35.70
2018-04-27T14:12:46.608Z,35.70
2018-04-27T14:15:14.873Z,34.60
2018-04-27T14:17:42.344Z,34.60
2018-04-27T14:20:10.641Z,35.50
2018-04-27T14:22:38.949Z,35.80
2018-04-27T14:25:06.448Z,35.10
2018-04-27T14:27:33.909Z,34.80
2018-04-27T14:30:01.398Z,35.30
2018-04-27T14:32:30.257Z,34.90
2018-04-27T14:34:57.747Z,34.80
2018-04-27T14:37:25.955Z,34.90
2018-04-27T14:39:53.443Z,33.80
2018-04-27T14:42:20.905Z,33.90
2018-04-27T14:44:48.639Z,33.20
2018-04-27T14:47:16.941Z,32.80
2018-04-27T14:49:44.428Z,32.80
2018-04-27T14:52:12.675Z,31.10
2018-04-27T14:54:40.177Z,31.10
2018-04-27T14:57:07.644Z,31.00
2018-04-27T14:59:35.203Z,30.20
2018-04-27T15:04:25.351Z,30.40
2018-04-27T15:06:53.103Z,31.00
2018-04-27T15:09:20.579Z,30.70
2018-04-27T15:11:48.058Z,30.00
2018-04-27T15:14:15.581Z,30.50
2018-04-27T15:16:43.051Z,29.80
2018-04-27T15:19:10.536Z,29.30
2018-04-27T15:21:38.768Z,29.50
2018-04-27T15:24:06.286Z,29.40
2018-04-27T15:26:34.484Z,29.20
2018-04-27T15:29:01.994Z,29.40
2018-04-27T15:31:29.474Z,29.80
2018-04-27T15:33:56.963Z,29.80
2018-04-27T15:36:24.425Z,29.50
2018-04-27T15:38:51.922Z,28.30
2018-04-27T15:41:20.179Z,27.10
2018-04-27T15:43:47.690Z,27.00
2018-04-27T15:46:15.163Z,27.50
2018-04-27T15:48:43.087Z,26.90
2018-04-27T15:51:11.320Z,25.80
2018-04-27T15:53:38.810Z,25.70
2018-04-27T15:56:06.370Z,26.00
2018-04-27T15:58:33.878Z,26.50
2018-04-27T16:01:01.362Z,26.70
2018-04-27T16:03:28.844Z,26.40
2018-04-27T16:08:31.201Z,27.10
2018-04-27T16:10:58.683Z,27.10
2018-04-27T16:16:24.011Z,28.50
2018-04-27T16:18:51.493Z,29.40
2018-04-27T16:21:19.078Z,30.10
2018-04-27T16:23:46.582Z,31.40
2018-04-27T16:26:17.872Z,31.90
2018-04-27T16:28:45.367Z,32.60
2018-04-27T16:31:12.840Z,33.10
2018-04-27T16:33:40.411Z,33.50
2018-04-27T16:36:08.647Z,34.80
2018-04-27T16:38:36.372Z,34.70
2018-04-27T16:41:03.911Z,34.70
2018-04-27T16:43:32.320Z,34.90
2018-04-27T16:46:00.043Z,34.90
2018-04-27T16:48:28.546Z,35.80
2018-04-27T16:50:56.190Z,35.70
2018-04-27T16:53:24.509Z,37.00
2018-04-27T16:55:52.578Z,37.00
2018-04-27T16:58:20.104Z,38.00
2018-04-27T17:00:47.632Z,37.90
2018-04-27T17:03:15.142Z,38.10
2018-04-27T17:05:42.611Z,38.10
2018-04-27T17:08:10.161Z,38.50
2018-04-27T17:10:37.688Z,38.80
2018-04-27T17:13:05.948Z,39.50
2018-04-27T17:15:33.429Z,39.40
2018-04-27T17:18:01.684Z,39.80
2018-04-27T17:20:29.244Z,39.80
2018-04-27T17:22:56.720Z,40.10
2018-04-27T17:25:24.969Z,41.90
2018-04-27T17:27:52.489Z,41.90
2018-04-27T17:30:19.960Z,42.20
2018-04-27T17:32:47.538Z,42.00
2018-04-27T17:35:15.093Z,42.20
2018-04-27T17:37:43.299Z,42.60
2018-04-27T17:40:11.555Z,42.60
2018-04-27T17:42:39.132Z,42.60
2018-04-27T17:45:07.412Z,43.30
2018-04-27T17:47:35.719Z,43.80
2018-04-27T17:50:03.276Z,43.90
2018-04-27T17:52:30.738Z,44.50
2018-04-27T17:54:58.244Z,45.70
2018-04-27T17:57:25.759Z,46.10
2018-04-27T17:59:53.254Z,45.10
2018-04-27T18:02:20.824Z,45.30
2018-04-27T18:04:48.313Z,45.70
2018-04-27T18:07:15.767Z,46.40
2018-04-27T18:09:43.337Z,45.70
2018-04-27T18:12:10.903Z,46.10
2018-04-27T18:14:38.294Z,46.30
2018-04-27T18:17:05.773Z,47.40
2018-04-27T18:19:33.335Z,47.60
2018-04-27T18:22:01.607Z,48.20
2018-04-27T18:24:29.112Z,48.20
2018-04-27T18:26:56.580Z,48.40
2018-04-27T18:29:24.056Z,49.10
2018-04-27T18:31:51.532Z,49.60
2018-04-27T18:34:19.088Z,50.20
2018-04-27T18:36:47.323Z,51.40
2018-04-27T18:39:14.862Z,51.40
2018-04-27T18:41:43.071Z,52.70
2018-04-27T18:44:10.564Z,52.60
2018-04-27T18:46:38.806Z,54.70
2018-04-27T18:49:06.403Z,54.30
2018-04-27T18:51:35.766Z,56.30
2018-04-27T18:54:04.054Z,57.10
2018-04-27T18:56:31.536Z,56.30
2018-04-27T18:58:59.783Z,57.40
2018-04-27T19:01:27.271Z,57.30
2018-04-27T19:03:55.783Z,58.50
2018-04-27T19:06:24.065Z,58.50
2018-04-27T19:08:51.622Z,58.90
2018-04-27T19:11:19.838Z,59.20
2018-04-27T19:13:47.315Z,59.60
2018-04-27T19:16:15.546Z,61.60
2018-04-27T19:18:43.023Z,60.80
2018-04-27T19:21:10.511Z,61.00
2018-04-27T19:23:38.786Z,62.20
2018-04-27T19:26:07.963Z,63.00
2018-04-27T19:28:35.472Z,63.00
2018-04-27T19:31:03.682Z,63.70
2018-04-27T19:33:32.027Z,64.10
2018-04-27T19:35:59.530Z,64.90
2018-04-27T19:38:27.042Z,65.40
2018-04-27T19:40:54.529Z,65.90
2018-04-27T19:43:22.018Z,66.40
2018-04-27T19:45:50.333Z,68.40
2018-04-27T19:48:17.814Z,67.50
2018-04-27T19:50:45.303Z,67.90
2018-04-27T19:53:12.766Z,69.00
2018-04-27T19:55:41.024Z,69.90
2018-04-27T19:58:08.525Z,69.90
2018-04-27T20:00:36.878Z,70.50
2018-04-27T20:03:05.122Z,71.50
2018-04-27T20:05:32.596Z,71.40
2018-04-27T20:08:00.068Z,71.70
2018-04-27T20:10:31.840Z,72.50
2018-04-27T20:13:00.080Z,73.00
2018-04-27T20:15:38.516Z,73.00
2018-04-27T20:18:07.772Z,74.20
2018-04-27T20:20:35.989Z,75.00
2018-04-27T20:23:06.868Z,75.10
2018-04-27T20:25:34.365Z,75.00
2018-04-27T20:28:02.599Z,75.80
2018-04-27T20:30:30.974Z,75.80
2018-04-27T20:32:58.507Z,76.00
2018-04-27T20:35:26.759Z,76.20
2018-04-27T20:37:55.196Z,76.20
2018-04-27T20:40:25.517Z,76.30
2018-04-27T20:42:52.988Z,76.70
2018-04-27T20:45:20.487Z,77.10
2018-04-27T20:47:47.943Z,77.20
2018-04-27T20:50:15.431Z,77.50
2018-04-27T20:52:42.930Z,77.80
2018-04-27T20:55:14.827Z,78.20
2018-04-27T20:57:43.072Z,78.60
2018-04-27T21:00:10.599Z,78.50
2018-04-27T21:02:38.106Z,78.40
2018-04-27T21:05:05.583Z,78.70
2018-04-27T21:07:33.813Z,79.60
2018-04-27T21:10:01.325Z,79.60
2018-04-27T21:12:28.795Z,79.80
2018-04-27T21:14:56.281Z,79.50
2018-04-27T21:17:23.753Z,79.80
2018-04-27T21:19:51.232Z,79.70
2018-04-27T21:22:19.477Z,79.80
2018-04-27T21:24:46.977Z,79.30
2018-04-27T21:27:15.204Z,79.00
2018-04-27T21:29:42.781Z,79.00
2018-04-27T21:32:11.005Z,79.20
2018-04-27T21:34:38.543Z,79.20
2018-04-27T21:37:06.824Z,79.80
2018-04-27T21:39:35.236Z,79.60
2018-04-27T21:42:06.409Z,79.50
2018-04-27T21:44:38.806Z,80.00
2018-04-27T21:50:07.113Z,79.40
2018-04-27T21:52:44.241Z,81.10
2018-04-27T21:55:11.977Z,81.00
2018-04-27T21:57:40.667Z,81.90
2018-04-27T22:00:27.295Z,84.10
2018-04-27T22:06:03.762Z,87.20
2018-04-27T22:08:32.013Z,88.00
2018-04-27T22:13:57.307Z,89.20
2018-04-27T22:19:16.995Z,88.70
2018-04-27T22:21:44.485Z,89.20
2018-04-27T22:24:14.668Z,89.10
2018-04-27T22:26:45.185Z,89.70
2018-04-27T22:29:23.651Z,89.10
2018-04-27T22:31:57.895Z,89.50
2018-04-27T22:34:28.329Z,89.30
2018-04-27T22:36:56.416Z,88.50
2018-04-27T22:39:43.620Z,88.60
2018-04-27T22:42:12.043Z,88.30
2018-04-27T22:44:44.027Z,87.20
2018-04-27T22:47:13.221Z,85.20
2018-04-27T22:49:41.458Z,84.40
2018-04-27T22:52:08.939Z,84.50
2018-04-27T22:54:39.381Z,83.90
2018-04-27T22:57:09.336Z,83.20
2018-04-27T22:59:36.849Z,83.00
2018-04-27T23:02:05.158Z,83.60
2018-04-27T23:04:32.623Z,82.80
2018-04-27T23:07:00.127Z,82.70
2018-04-27T23:09:27.805Z,82.60
2018-04-27T23:11:56.077Z,82.70
2018-04-27T23:14:31.133Z,83.40
2018-04-27T23:16:58.625Z,82.50
2018-04-27T23:19:26.905Z,83.00
2018-04-27T23:22:02.840Z,83.50
2018-04-27T23:24:33.061Z,83.70
2018-04-27T23:27:01.407Z,84.20
2018-04-27T23:29:28.810Z,84.10
2018-04-27T23:31:56.352Z,84.30
2018-04-27T23:34:23.824Z,84.50
2018-04-27T23:36:51.310Z,84.70
2018-04-27T23:39:18.824Z,85.10
2018-04-27T23:41:46.313Z,85.40
2018-04-27T23:44:13.780Z,85.60
2018-04-27T23:46:41.261Z,86.10
2018-04-27T23:49:08.724Z,86.40
2018-04-27T23:51:36.993Z,86.40
2018-04-27T23:54:07.863Z,86.40
2018-04-27T23:56:36.945Z,86.30
2018-04-27T23:59:05.201Z,86.30
